createdAt,value
2019-06-07T00:02:13.145Z,18.30
2019-06-07T00:07:54.103Z,18.30
2019-06-07T00:10:42.104Z,18.30
2019-06-07T00:14:08.610Z,18.30
2019-06-07T00:16:57.457Z,18.30
2019-06-07T00:19:45.437Z,18.30
2019-06-07T00:22:33.856Z,18.30
2019-06-07T00:25:24.473Z,18.30
2019-06-07T00:28:13.211Z,18.30
2019-06-07T00:33:50.498Z,18.30
2019-06-07T00:40:12.756Z,18.30
2019-06-07T00:48:37.451Z,18.20
2019-06-07T00:53:59.905Z,18.10
2019-06-07T00:56:40.479Z,18.20
2019-06-07T00:59:28.642Z,18.10
2019-06-07T01:02:05.500Z,18.20
2019-06-07T01:04:47.095Z,18.10
2019-06-07T01:07:28.078Z,18.10
2019-06-07T01:10:08.657Z,18.00
2019-06-07T01:12:49.038Z,18.00
2019-06-07T01:15:30.358Z,18.10
2019-06-07T01:18:37.040Z,18.10
2019-06-07T01:20:59.238Z,18.10
2019-06-07T01:24:08.745Z,18.10
2019-06-07T01:33:50.295Z,18.10
2019-06-07T01:36:24.417Z,18.10
2019-06-07T01:39:11.931Z,18.00
2019-06-07T01:48:13.231Z,17.80
2019-06-07T01:54:49.479Z,17.50
2019-06-07T01:57:31.095Z,17.20
2019-06-07T02:03:02.109Z,17.20
2019-06-07T02:05:42.767Z,17.20
2019-06-07T02:11:15.721Z,17.00
2019-06-07T02:13:45.091Z,17.00
2019-06-07T02:16:33.132Z,16.90
2019-06-07T02:19:22.014Z,16.90
2019-06-07T02:22:10.175Z,16.80
2019-06-07T02:25:34.532Z,16.80
2019-06-07T02:28:27.465Z,16.80
2019-06-07T02:30:59.848Z,16.80
2019-06-07T02:34:03.099Z,16.90
2019-06-07T02:36:39.234Z,16.90
2019-06-07T02:39:23.979Z,16.80
2019-06-07T02:45:42.774Z,16.70
2019-06-07T02:48:28.006Z,16.50
2019-06-07T02:50:57.294Z,16.40
2019-06-07T02:56:42.165Z,16.40
2019-06-07T02:59:10.264Z,16.50
2019-06-07T03:01:58.239Z,16.60
2019-06-07T03:08:30.792Z,16.60
2019-06-07T03:11:37.597Z,16.70
2019-06-07T03:24:55.951Z,17.20
2019-06-07T03:27:49.543Z,17.30
2019-06-07T03:31:01.664Z,17.40
2019-06-07T03:37:42.315Z,18.30
2019-06-07T03:40:46.003Z,18.90
2019-06-07T03:43:36.634Z,19.20
2019-06-07T03:46:23.987Z,19.40
2019-06-07T03:49:11.947Z,19.70
2019-06-07T03:55:39.085Z,19.60
2019-06-07T04:10:55.925Z,18.50
2019-06-07T04:13:24.058Z,18.20
2019-06-07T04:22:38.865Z,18.00
2019-06-07T04:29:31.553Z,18.50
2019-06-07T04:44:34.236Z,24.60
2019-06-07T04:45:50.727Z,25.20
2019-06-07T04:50:50.068Z,26.40
2019-06-07T04:54:13.794Z,26.30
2019-06-07T05:10:26.225Z,28.60
2019-06-07T05:22:03.734Z,30.50
2019-06-07T05:35:19.433Z,31.60
2019-06-07T05:45:51.267Z,31.30
2019-06-07T05:55:32.615Z,32.40
2019-06-07T06:01:47.874Z,33.00
2019-06-07T06:04:12.572Z,33.80
2019-06-07T06:06:44.750Z,33.90
2019-06-07T06:09:31.410Z,34.10
2019-06-07T06:12:02.435Z,34.10
2019-06-07T06:14:49.982Z,33.50
2019-06-07T06:17:42.755Z,33.40
2019-06-07T06:21:18.747Z,34.10
2019-06-07T06:36:13.842Z,34.10
2019-06-07T06:42:03.845Z,34.20
2019-06-07T06:48:54.745Z,34.00
2019-06-07T06:51:53.627Z,35.20
2019-06-07T06:57:19.007Z,36.50
2019-06-07T07:04:03.102Z,36.80
2019-06-07T07:13:44.468Z,35.40
2019-06-07T07:16:31.895Z,36.10
2019-06-07T07:22:54.234Z,36.40
2019-06-07T07:25:31.848Z,36.60
2019-06-07T07:32:25.245Z,36.30
2019-06-07T07:39:04.128Z,36.70
2019-06-07T07:42:12.593Z,37.20
2019-06-07T07:44:35.598Z,38.10
2019-06-07T07:47:23.538Z,37.80
2019-06-07T07:50:11.510Z,36.90
2019-06-07T07:53:17.637Z,36.80
2019-06-07T07:56:06.186Z,36.70
2019-06-07T07:59:41.978Z,37.10
2019-06-07T08:05:49.228Z,35.80
2019-06-07T08:08:38.533Z,34.20
2019-06-07T08:14:58.458Z,34.00
2019-06-07T08:18:04.328Z,35.50
2019-06-07T08:24:21.924Z,37.50
2019-06-07T08:27:24.787Z,38.90
2019-06-07T08:30:00.921Z,39.10
2019-06-07T08:35:09.918Z,40.20
2019-06-07T08:40:33.402Z,39.40
2019-06-07T08:43:20.567Z,39.80
2019-06-07T08:46:02.348Z,39.60
2019-06-07T08:48:30.007Z,39.80
2019-06-07T08:51:16.858Z,40.20
2019-06-07T08:54:21.577Z,40.20
2019-06-07T08:57:06.647Z,40.20
2019-06-07T08:59:44.398Z,39.50
2019-06-07T09:02:32.770Z,38.40
2019-06-07T09:05:20.766Z,39.20
2019-06-07T09:08:28.678Z,38.90
2019-06-07T09:10:59.564Z,36.90
2019-06-07T09:16:08.206Z,36.00
2019-06-07T09:18:43.207Z,36.10
2019-06-07T09:21:26.039Z,36.20
2019-06-07T09:24:15.703Z,35.70
2019-06-07T09:27:07.574Z,35.60
2019-06-07T09:32:47.271Z,36.40
2019-06-07T09:39:08.391Z,33.60
2019-06-07T09:41:50.516Z,33.00
2019-06-07T09:44:31.423Z,32.30
2019-06-07T09:47:19.598Z,33.10
2019-06-07T09:49:33.185Z,33.70
2019-06-07T09:52:20.868Z,33.90
2019-06-07T09:58:53.621Z,35.50
2019-06-07T10:09:56.974Z,36.10
2019-06-07T10:11:25.180Z,34.40
2019-06-07T10:17:41.190Z,32.20
2019-06-07T10:23:17.948Z,28.90
2019-06-07T10:26:06.083Z,27.60
2019-06-07T10:28:55.674Z,27.00
2019-06-07T10:31:43.624Z,25.80
2019-06-07T10:34:31.586Z,25.90
2019-06-07T10:37:19.561Z,26.00
2019-06-07T10:40:09.255Z,25.70
2019-06-07T10:42:38.739Z,25.00
2019-06-07T11:07:02.084Z,26.40
2019-06-07T11:15:24.324Z,27.50
2019-06-07T11:21:42.555Z,27.30
2019-06-07T11:24:30.887Z,27.00
2019-06-07T11:27:19.183Z,27.00
2019-06-07T11:30:26.421Z,26.70
2019-06-07T11:33:32.543Z,25.70
2019-06-07T11:40:03.500Z,25.10
2019-06-07T11:42:32.853Z,25.30
2019-06-07T11:45:43.806Z,25.30
2019-06-07T11:48:11.427Z,25.20
2019-06-07T11:55:11.545Z,25.10
2019-06-07T11:58:01.066Z,25.10
2019-06-07T12:00:33.884Z,25.00
2019-06-07T12:03:19.943Z,25.30
2019-06-07T12:06:25.463Z,25.50
2019-06-07T12:09:14.538Z,25.70
2019-06-07T12:26:58.150Z,24.20
2019-06-07T12:29:26.846Z,24.50
2019-06-07T12:31:55.968Z,24.60
2019-06-07T12:34:44.219Z,24.60
2019-06-07T12:37:43.121Z,24.60
2019-06-07T12:40:30.218Z,25.10
2019-06-07T12:43:12.485Z,25.40
2019-06-07T12:45:45.287Z,25.60
2019-06-07T12:48:16.255Z,25.70
2019-06-07T12:51:01.659Z,26.00
2019-06-07T12:53:49.601Z,26.20
2019-06-07T12:56:19.800Z,26.00
2019-06-07T12:59:08.406Z,25.10
2019-06-07T13:02:33.419Z,24.40
2019-06-07T13:05:04.716Z,24.00
2019-06-07T13:10:46.571Z,24.20
2019-06-07T13:17:12.857Z,24.30
2019-06-07T13:20:00.931Z,24.20
2019-06-07T13:25:41.127Z,24.70
2019-06-07T13:31:44.218Z,24.50
2019-06-07T13:34:32.231Z,24.40
2019-06-07T13:37:21.130Z,24.60
2019-06-07T13:40:09.186Z,24.60
2019-06-07T13:46:41.428Z,24.20
2019-06-07T13:49:29.369Z,24.50
2019-06-07T13:52:35.111Z,24.70
2019-06-07T13:59:39.216Z,25.20
2019-06-07T14:13:23.636Z,25.00
2019-06-07T14:23:01.695Z,24.90
2019-06-07T14:25:49.659Z,25.10
2019-06-07T14:28:37.742Z,25.10
2019-06-07T14:31:17.605Z,25.00
2019-06-07T14:34:05.669Z,25.10
2019-06-07T14:36:53.964Z,24.90
2019-06-07T14:39:42.052Z,24.90
2019-06-07T14:42:31.305Z,25.00
2019-06-07T14:45:20.894Z,24.80
2019-06-07T14:48:09.044Z,24.60
2019-06-07T14:54:08.411Z,24.80
2019-06-07T14:56:56.472Z,25.00
2019-06-07T15:00:10.461Z,25.10
2019-06-07T15:02:51.980Z,25.30
2019-06-07T15:05:40.594Z,25.30
2019-06-07T15:09:04.198Z,25.20
2019-06-07T15:11:52.184Z,25.10
2019-06-07T15:17:47.823Z,25.00
2019-06-07T15:20:47.341Z,25.00
2019-06-07T15:23:27.030Z,25.10
2019-06-07T15:29:09.630Z,25.10
2019-06-07T15:35:21.244Z,25.30
2019-06-07T15:38:02.519Z,25.20
2019-06-07T15:40:43.207Z,25.10
2019-06-07T15:43:23.814Z,25.10
2019-06-07T15:46:04.401Z,25.10
2019-06-07T15:48:33.971Z,25.10
2019-06-07T15:51:21.991Z,25.10
2019-06-07T15:54:09.994Z,25.10
2019-06-07T15:59:51.842Z,25.10
2019-06-07T16:02:39.977Z,25.20
2019-06-07T16:05:27.909Z,25.20
2019-06-07T16:08:34.341Z,25.20
2019-06-07T16:11:22.394Z,25.40
2019-06-07T16:14:10.463Z,25.50
2019-06-07T16:17:16.297Z,25.60
2019-06-07T16:26:14.010Z,25.30
2019-06-07T16:32:29.983Z,25.20
2019-06-07T16:35:17.995Z,25.10
2019-06-07T16:38:23.642Z,25.20
2019-06-07T16:55:06.327Z,25.00
2019-06-07T16:57:46.912Z,25.10
2019-06-07T17:00:31.232Z,25.00
2019-06-07T17:03:12.348Z,25.00
2019-06-07T17:05:53.818Z,25.00
2019-06-07T17:08:34.454Z,25.10
2019-06-07T17:11:15.499Z,25.20
2019-06-07T17:13:56.565Z,25.20
2019-06-07T17:16:38.742Z,25.20
2019-06-07T17:19:19.271Z,25.20
2019-06-07T17:22:00.219Z,25.10
2019-06-07T17:25:00.118Z,25.10
2019-06-07T17:27:41.995Z,25.10
2019-06-07T17:30:22.820Z,25.10
2019-06-07T17:36:07.415Z,25.10
2019-06-07T17:38:36.896Z,25.10
2019-06-07T17:41:06.054Z,25.00
2019-06-07T17:43:48.439Z,25.00
2019-06-07T17:46:26.727Z,25.00
2019-06-07T17:49:15.062Z,24.90
2019-06-07T17:52:03.015Z,24.90
2019-06-07T17:54:52.256Z,24.80
2019-06-07T17:57:40.747Z,24.80
2019-06-07T18:00:53.810Z,24.80
2019-06-07T18:03:42.985Z,24.70
2019-06-07T18:06:31.506Z,24.60
2019-06-07T18:09:19.614Z,24.60
2019-06-07T18:14:41.944Z,24.50
2019-06-07T18:17:10.919Z,24.40
2019-06-07T18:19:59.123Z,24.40
2019-06-07T18:22:47.506Z,24.40
2019-06-07T18:25:35.598Z,24.40
2019-06-07T18:29:00.599Z,24.30
2019-06-07T18:31:48.763Z,24.30
2019-06-07T18:37:30.655Z,24.20
2019-06-07T18:43:18.934Z,24.10
2019-06-07T18:48:41.316Z,24.00
2019-06-07T18:54:40.428Z,24.00
2019-06-07T19:03:39.677Z,23.80
2019-06-07T19:06:27.693Z,23.70
2019-06-07T19:12:09.527Z,23.60
2019-06-07T19:14:57.720Z,23.60
2019-06-07T19:17:45.838Z,23.50
2019-06-07T19:20:35.799Z,23.40
2019-06-07T19:23:24.083Z,23.40
2019-06-07T19:26:12.745Z,23.30
2019-06-07T19:29:01.003Z,23.30
2019-06-07T19:34:42.551Z,23.20
2019-06-07T19:37:31.115Z,23.20
2019-06-07T19:40:00.178Z,23.10
2019-06-07T19:42:49.731Z,23.10
2019-06-07T19:45:37.665Z,23.00
2019-06-07T19:48:25.638Z,23.00
2019-06-07T19:51:13.573Z,22.90
2019-06-07T19:54:01.823Z,22.90
2019-06-07T19:56:53.715Z,22.80
2019-06-07T19:59:41.862Z,22.80
2019-06-07T20:02:22.809Z,22.70
2019-06-07T20:05:06.545Z,22.70
2019-06-07T20:07:45.612Z,22.70
2019-06-07T20:10:26.294Z,22.70
2019-06-07T20:13:06.971Z,22.60
2019-06-07T20:15:48.231Z,22.60
2019-06-07T20:21:11.131Z,22.50
2019-06-07T20:23:52.251Z,22.40
2019-06-07T20:26:33.176Z,22.40
2019-06-07T20:31:56.233Z,22.30
2019-06-07T20:34:36.808Z,22.20
2019-06-07T20:37:17.962Z,22.20
2019-06-07T20:40:05.988Z,22.20
2019-06-07T20:45:45.184Z,22.10
2019-06-07T20:48:25.828Z,22.00
2019-06-07T20:54:12.002Z,22.00
2019-06-07T20:56:52.902Z,21.90
2019-06-07T21:02:38.488Z,21.90
2019-06-07T21:05:19.103Z,21.80
2019-06-07T21:08:01.375Z,21.80
2019-06-07T21:10:42.022Z,21.70
2019-06-07T21:13:23.640Z,21.70
2019-06-07T21:16:06.064Z,21.60
2019-06-07T21:18:47.507Z,21.60
2019-06-07T21:27:50.437Z,21.50
2019-06-07T21:30:38.461Z,21.40
2019-06-07T21:33:26.474Z,21.40
2019-06-07T21:36:14.437Z,21.40
2019-06-07T21:39:02.452Z,21.30
2019-06-07T21:41:50.676Z,21.30
2019-06-07T21:44:56.562Z,21.20
2019-06-07T21:47:44.538Z,21.20
2019-06-07T21:50:33.030Z,21.10
2019-06-07T21:53:20.967Z,21.10
2019-06-07T21:56:09.424Z,21.10
2019-06-07T21:58:38.587Z,21.10
2019-06-07T22:04:55.071Z,21.00
2019-06-07T22:07:43.010Z,21.00
2019-06-07T22:13:24.379Z,20.90
2019-06-07T22:18:47.110Z,20.80
2019-06-07T22:21:16.000Z,20.80
2019-06-07T22:24:04.776Z,20.70
2019-06-07T22:26:53.714Z,20.70
2019-06-07T22:32:41.816Z,20.60
2019-06-07T22:35:30.032Z,20.60
2019-06-07T22:38:18.459Z,20.50
2019-06-07T22:41:09.346Z,20.50
2019-06-07T22:46:51.042Z,20.40
2019-06-07T22:49:56.763Z,20.40
2019-06-07T22:52:44.841Z,20.30
2019-06-07T22:59:37.011Z,20.30
2019-06-07T23:02:24.958Z,20.20
2019-06-07T23:05:13.021Z,20.10
2019-06-07T23:08:01.293Z,20.10
2019-06-07T23:10:49.395Z,20.10
2019-06-07T23:13:18.159Z,20.10
2019-06-07T23:15:47.219Z,20.10
2019-06-07T23:21:11.672Z,20.00
2019-06-07T23:23:41.702Z,20.00
2019-06-07T23:26:29.634Z,19.90
2019-06-07T23:29:18.647Z,19.90
2019-06-07T23:31:59.814Z,19.80
2019-06-07T23:34:40.714Z,19.80
2019-06-07T23:37:21.694Z,19.80
2019-06-07T23:40:02.355Z,19.70
2019-06-07T23:46:02.718Z,19.60
2019-06-07T23:48:31.698Z,19.60
2019-06-07T23:51:00.411Z,19.60
2019-06-07T23:53:48.746Z,19.60
2019-06-07T23:56:36.977Z,19.60
